sensor_id;sensor_type;location;lat;lon;timestamp;P1;durP1;ratioP1;P2;durP2;ratioP2
23594;SDS011;11975;47.674;9.472;2023-03-16T03:36:33;28.70;;;27.05;;
23594;SDS011;11975;47.674;9.472;2023-03-16T03:38:59;27.98;;;26.38;;
23594;SDS011;11975;47.674;9.472;2023-03-16T03:41:30;28.80;;;27.10;;
23594;SDS011;11975;47.674;9.472;2023-03-16T03:46:24;28.20;;;26.60;;
23594;SDS011;11975;47.674;9.472;2023-03-16T03:48:50;29.67;;;27.97;;
23594;SDS011;11975;47.674;9.472;2023-03-16T03:51:16;27.48;;;25.90;;
23594;SDS011;11975;47.674;9.472;2023-03-16T03:53:42;28.05;;;26.45;;
23594;SDS011;11975;47.674;9.472;2023-03-16T03:56:08;26.80;;;25.30;;
23594;SDS011;11975;47.674;9.472;2023-03-16T03:58:34;27.73;;;26.13;;
23594;SDS011;11975;47.674;9.472;2023-03-16T04:01:00;27.20;;;25.70;;
23594;SDS011;11975;47.674;9.472;2023-03-16T04:03:26;27.83;;;26.23;;
23594;SDS011;11975;47.674;9.472;2023-03-16T04:05:52;29.02;;;27.33;;
23594;SDS011;11975;47.674;9.472;2023-03-16T04:08:18;28.60;;;26.75;;
23594;SDS011;11975;47.674;9.472;2023-03-16T04:10:44;27.92;;;26.33;;
23594;SDS011;11975;47.674;9.472;2023-03-16T04:13:10;28.08;;;26.48;;
23594;SDS011;11975;47.674;9.472;2023-03-16T04:15:36;28.85;;;27.15;;
23594;SDS011;11975;47.674;9.472;2023-03-16T04:18:03;27.88;;;26.17;;
23594;SDS011;11975;47.674;9.472;2023-03-16T04:20:29;27.38;;;25.85;;
23594;SDS011;11975;47.674;9.472;2023-03-16T04:22:55;26.75;;;25.25;;
23594;SDS011;11975;47.674;9.472;2023-03-16T04:25:23;27.77;;;26.10;;
23594;SDS011;11975;47.674;9.472;2023-03-16T04:27:55;27.92;;;26.30;;
23594;SDS011;11975;47.674;9.472;2023-03-16T04:30:21;28.23;;;26.52;;
23594;SDS011;11975;47.674;9.472;2023-03-16T04:32:48;29.02;;;27.20;;
23594;SDS011;11975;47.674;9.472;2023-03-16T04:35:14;27.95;;;26.35;;
23594;SDS011;11975;47.674;9.472;2023-03-16T04:37:40;28.38;;;26.75;;
23594;SDS011;11975;47.674;9.472;2023-03-16T04:40:06;28.27;;;26.67;;
23594;SDS011;11975;47.674;9.472;2023-03-16T04:42:41;27.58;;;25.98;;
23594;SDS011;11975;47.674;9.472;2023-03-16T04:45:11;28.35;;;26.70;;
23594;SDS011;11975;47.674;9.472;2023-03-16T04:47:37;28.50;;;26.80;;
23594;SDS011;11975;47.674;9.472;2023-03-16T04:50:03;27.70;;;26.10;;
23594;SDS011;11975;47.674;9.472;2023-03-16T04:52:30;28.92;;;27.30;;
23594;SDS011;11975;47.674;9.472;2023-03-16T04:54:56;27.67;;;26.08;;
23594;SDS011;11975;47.674;9.472;2023-03-16T04:57:22;27.77;;;26.17;;
23594;SDS011;11975;47.674;9.472;2023-03-16T04:59:49;27.38;;;25.77;;
23594;SDS011;11975;47.674;9.472;2023-03-16T05:02:15;28.55;;;26.85;;
23594;SDS011;11975;47.674;9.472;2023-03-16T05:04:42;29.10;;;26.92;;
23594;SDS011;11975;47.674;9.472;2023-03-16T05:07:08;27.92;;;26.10;;
23594;SDS011;11975;47.674;9.472;2023-03-16T05:09:34;27.92;;;26.33;;
23594;SDS011;11975;47.674;9.472;2023-03-16T05:12:00;28.48;;;26.88;;
23594;SDS011;11975;47.674;9.472;2023-03-16T05:14:26;28.17;;;26.58;;
23594;SDS011;11975;47.674;9.472;2023-03-16T05:16:51;28.70;;;27.00;;
23594;SDS011;11975;47.674;9.472;2023-03-16T05:19:17;28.30;;;26.70;;
23594;SDS011;11975;47.674;9.472;2023-03-16T05:21:43;27.98;;;26.38;;
23594;SDS011;11975;47.674;9.472;2023-03-16T05:24:10;27.83;;;26.25;;
23594;SDS011;11975;47.674;9.472;2023-03-16T05:26:39;27.17;;;25.63;;
23594;SDS011;11975;47.674;9.472;2023-03-16T05:29:05;28.58;;;26.77;;
23594;SDS011;11975;47.674;9.472;2023-03-16T05:31:31;27.75;;;26.15;;
23594;SDS011;11975;47.674;9.472;2023-03-16T05:33:58;28.20;;;26.52;;
23594;SDS011;11975;47.674;9.472;2023-03-16T17:31:34;22.15;;;20.92;;
23594;SDS011;11975;47.674;9.472;2023-03-16T17:34:02;21.63;;;20.42;;
23594;SDS011;11975;47.674;9.472;2023-03-16T17:36:33;21.58;;;20.38;;
23594;SDS011;11975;47.674;9.472;2023-03-16T17:38:59;21.60;;;20.40;;
23594;SDS011;11975;47.674;9.472;2023-03-16T17:41:27;21.58;;;20.38;;
23594;SDS011;11975;47.674;9.472;2023-03-16T17:43:55;22.00;;;20.73;;
23594;SDS011;11975;47.674;9.472;2023-03-16T17:46:23;21.80;;;20.60;;
23594;SDS011;11975;47.674;9.472;2023-03-16T17:48:51;22.40;;;21.10;;
23594;SDS011;11975;47.674;9.472;2023-03-16T17:51:18;21.73;;;20.52;;
23594;SDS011;11975;47.674;9.472;2023-03-16T17:53:46;21.95;;;20.75;;
23594;SDS011;11975;47.674;9.472;2023-03-16T17:56:13;21.48;;;20.27;;
23594;SDS011;11975;47.674;9.472;2023-03-16T17:58:48;22.00;;;20.70;;
23594;SDS011;11975;47.674;9.472;2023-03-16T18:01:18;21.77;;;20.58;;
23594;SDS011;11975;47.674;9.472;2023-03-16T18:03:49;22.45;;;20.92;;
23594;SDS011;11975;47.674;9.472;2023-03-16T18:06:22;21.70;;;20.50;;
23594;SDS011;11975;47.674;9.472;2023-03-16T18:08:50;22.13;;;20.83;;
23594;SDS011;11975;47.674;9.472;2023-03-16T18:11:20;21.95;;;20.75;;
23594;SDS011;11975;47.674;9.472;2023-03-16T18:13:48;22.10;;;20.90;;
23594;SDS011;11975;47.674;9.472;2023-03-16T18:16:16;22.70;;;21.40;;
23594;SDS011;11975;47.674;9.472;2023-03-16T18:18:48;21.73;;;20.52;;
23594;SDS011;11975;47.674;9.472;2023-03-16T18:21:16;22.42;;;21.13;;
23594;SDS011;11975;47.674;9.472;2023-03-16T18:23:43;21.52;;;20.33;;
23594;SDS011;11975;47.674;9.472;2023-03-16T18:26:09;22.52;;;21.23;;
23594;SDS011;11975;47.674;9.472;2023-03-16T18:28:36;22.38;;;21.08;;
23594;SDS011;11975;47.674;9.472;2023-03-16T18:31:02;21.90;;;20.60;;
23594;SDS011;11975;47.674;9.472;2023-03-16T18:35:55;20.65;;;19.55;;
23594;SDS011;11975;47.674;9.472;2023-03-16T18:38:30;21.40;;;20.20;;
23594;SDS011;11975;47.674;9.472;2023-03-16T18:40:58;20.73;;;19.52;;
23594;SDS011;11975;47.674;9.472;2023-03-16T18:43:26;21.25;;;20.05;;
23594;SDS011;11975;47.674;9.472;2023-03-16T18:45:52;21.00;;;19.80;;
23594;SDS011;11975;47.674;9.472;2023-03-16T18:48:26;21.20;;;20.00;;
23594;SDS011;11975;47.674;9.472;2023-03-16T18:50:54;21.55;;;20.35;;
23594;SDS011;11975;47.674;9.472;2023-03-16T18:53:20;21.30;;;20.10;;
23594;SDS011;11975;47.674;9.472;2023-03-16T18:55:49;21.10;;;19.90;;
23594;SDS011;11975;47.674;9.472;2023-03-16T18:58:18;22.13;;;20.63;;
23594;SDS011;11975;47.674;9.472;2023-03-16T19:00:47;20.90;;;19.70;;
23594;SDS011;11975;47.674;9.472;2023-03-16T19:03:26;21.30;;;20.08;;
23594;SDS011;11975;47.674;9.472;2023-03-16T19:05:54;21.90;;;20.58;;
23594;SDS011;11975;47.674;9.472;2023-03-16T19:08:21;21.38;;;20.17;;
23594;SDS011;11975;47.674;9.472;2023-03-16T19:10:49;21.75;;;20.52;;
23594;SDS011;11975;47.674;9.472;2023-03-16T19:13:18;22.17;;;20.77;;
23594;SDS011;11975;47.674;9.472;2023-03-16T19:15:46;21.77;;;20.58;;
23594;SDS011;11975;47.674;9.472;2023-03-16T19:18:13;22.60;;;21.30;;
23594;SDS011;11975;47.674;9.472;2023-03-16T19:20:40;22.50;;;21.20;;
23594;SDS011;11975;47.674;9.472;2023-03-16T19:25:48;23.23;;;21.92;;
23594;SDS011;11975;47.674;9.472;2023-03-16T19:28:21;21.30;;;20.10;;
23594;SDS011;11975;47.674;9.472;2023-03-16T19:30:54;22.85;;;21.55;;
23594;SDS011;11975;47.674;9.472;2023-03-16T19:33:22;23.75;;;22.35;;
23594;SDS011;11975;47.674;9.472;2023-03-16T19:35:50;24.83;;;23.33;;
23594;SDS011;11975;47.674;9.472;2023-03-16T19:38:17;25.15;;;23.67;;
23594;SDS011;11975;47.674;9.472;2023-03-16T19:40:43;24.50;;;23.10;;
23594;SDS011;11975;47.674;9.472;2023-03-16T19:43:13;24.73;;;23.33;;
23594;SDS011;11975;47.674;9.472;2023-03-16T19:45:41;25.65;;;24.15;;
23594;SDS011;11975;47.674;9.472;2023-03-16T19:48:11;24.52;;;23.13;;
23594;SDS011;11975;47.674;9.472;2023-03-16T19:50:39;25.50;;;24.05;;
23594;SDS011;11975;47.674;9.472;2023-03-16T19:53:12;27.30;;;25.20;;
23594;SDS011;11975;47.674;9.472;2023-03-16T19:55:43;26.38;;;24.88;;
23594;SDS011;11975;47.674;9.472;2023-03-16T19:58:14;25.58;;;24.17;;
23594;SDS011;11975;47.674;9.472;2023-03-16T20:01:03;25.83;;;24.35;;
23594;SDS011;11975;47.674;9.472;2023-03-16T20:03:32;26.92;;;25.42;;
23594;SDS011;11975;47.674;9.472;2023-03-16T20:05:59;26.23;;;24.73;;
23594;SDS011;11975;47.674;9.472;2023-03-16T20:08:26;26.15;;;24.55;;
23594;SDS011;11975;47.674;9.472;2023-03-16T20:10:55;26.23;;;24.73;;
23594;SDS011;11975;47.674;9.472;2023-03-16T20:13:25;26.17;;;24.67;;
23594;SDS011;11975;47.674;9.472;2023-03-16T20:15:51;25.58;;;24.17;;
23594;SDS011;11975;47.674;9.472;2023-03-16T20:18:17;26.73;;;25.23;;
23594;SDS011;11975;47.674;9.472;2023-03-16T20:20:44;25.38;;;23.92;;
23594;SDS011;11975;47.674;9.472;2023-03-16T20:23:21;24.88;;;23.48;;
23594;SDS011;11975;47.674;9.472;2023-03-16T20:25:49;24.27;;;22.90;;
23594;SDS011;11975;47.674;9.472;2023-03-16T20:28:18;24.35;;;22.95;;
23594;SDS011;11975;47.674;9.472;2023-03-16T20:30:46;24.17;;;22.83;;
23594;SDS011;11975;47.674;9.472;2023-03-16T20:33:23;24.17;;;22.80;;
23594;SDS011;11975;47.674;9.472;2023-03-16T20:35:50;23.80;;;22.48;;
23594;SDS011;11975;47.674;9.472;2023-03-16T20:38:18;23.35;;;22.02;;
23594;SDS011;11975;47.674;9.472;2023-03-16T20:40:44;24.02;;;22.67;;
23594;SDS011;11975;47.674;9.472;2023-03-16T20:43:28;24.08;;;22.73;;
23594;SDS011;11975;47.674;9.472;2023-03-16T20:45:57;23.15;;;21.85;;
23594;SDS011;11975;47.674;9.472;2023-03-16T20:48:24;24.17;;;22.67;;
23594;SDS011;11975;47.674;9.472;2023-03-16T20:50:51;23.17;;;21.88;;
23594;SDS011;11975;47.674;9.472;2023-03-16T20:53:18;22.73;;;21.48;;
23594;SDS011;11975;47.674;9.472;2023-03-16T20:55:44;23.30;;;22.00;;
23594;SDS011;11975;47.674;9.472;2023-03-16T20:58:23;23.10;;;21.70;;
23594;SDS011;11975;47.674;9.472;2023-03-16T21:00:51;23.00;;;21.70;;
23594;SDS011;11975;47.674;9.472;2023-03-16T21:05:48;23.15;;;21.80;;
23594;SDS011;11975;47.674;9.472;2023-03-16T21:08:15;22.60;;;21.30;;
23594;SDS011;11975;47.674;9.472;2023-03-16T21:10:42;23.35;;;22.05;;
23594;SDS011;11975;47.674;9.472;2023-03-16T21:13:13;23.35;;;21.95;;
23594;SDS011;11975;47.674;9.472;2023-03-16T21:15:42;22.90;;;21.60;;
23594;SDS011;11975;47.674;9.472;2023-03-16T21:18:09;22.08;;;20.77;;
23594;SDS011;11975;47.674;9.472;2023-03-16T21:20:40;22.73;;;21.42;;
23594;SDS011;11975;47.674;9.472;2023-03-16T21:23:14;23.08;;;21.77;;
23594;SDS011;11975;47.674;9.472;2023-03-16T21:25:43;23.27;;;21.98;;
23594;SDS011;11975;47.674;9.472;2023-03-16T21:28:13;21.92;;;20.73;;
23594;SDS011;11975;47.674;9.472;2023-03-16T21:30:47;23.23;;;21.83;;
23594;SDS011;11975;47.674;9.472;2023-03-16T21:35:49;21.77;;;20.58;;
23594;SDS011;11975;47.674;9.472;2023-03-16T21:38:17;21.85;;;20.65;;
23594;SDS011;11975;47.674;9.472;2023-03-16T21:40:44;23.35;;;21.58;;
23594;SDS011;11975;47.674;9.472;2023-03-16T21:43:10;23.50;;;21.80;;
23594;SDS011;11975;47.674;9.472;2023-03-16T21:45:36;23.08;;;21.75;;
23594;SDS011;11975;47.674;9.472;2023-03-16T21:48:03;21.88;;;20.67;;
23594;SDS011;11975;47.674;9.472;2023-03-16T21:50:30;22.80;;;21.50;;
23594;SDS011;11975;47.674;9.472;2023-03-16T21:52:58;22.23;;;21.02;;
23594;SDS011;11975;47.674;9.472;2023-03-16T21:55:25;22.33;;;21.08;;
23594;SDS011;11975;47.674;9.472;2023-03-16T21:57:52;22.77;;;21.48;;
23594;SDS011;11975;47.674;9.472;2023-03-16T22:00:22;22.10;;;20.90;;
23594;SDS011;11975;47.674;9.472;2023-03-16T22:02:57;22.38;;;21.10;;
23594;SDS011;11975;47.674;9.472;2023-03-16T22:05:26;23.83;;;22.42;;
23594;SDS011;11975;47.674;9.472;2023-03-16T22:07:54;23.20;;;21.80;;
23594;SDS011;11975;47.674;9.472;2023-03-16T22:10:23;23.75;;;22.45;;
23594;SDS011;11975;47.674;9.472;2023-03-16T22:12:50;23.50;;;22.10;;
23594;SDS011;11975;47.674;9.472;2023-03-16T22:15:17;22.98;;;21.67;;
23594;SDS011;11975;47.674;9.472;2023-03-16T22:17:45;22.40;;;21.17;;
23594;SDS011;11975;47.674;9.472;2023-03-16T22:20:22;22.85;;;21.55;;
23594;SDS011;11975;47.674;9.472;2023-03-16T22:22:52;23.02;;;21.73;;
23594;SDS011;11975;47.674;9.472;2023-03-16T22:25:20;23.17;;;21.88;;
23594;SDS011;11975;47.674;9.472;2023-03-16T22:27:48;22.38;;;21.13;;
23594;SDS011;11975;47.674;9.472;2023-03-16T22:30:21;22.77;;;21.48;;
23594;SDS011;11975;47.674;9.472;2023-03-16T22:35:32;22.65;;;21.35;;
23594;SDS011;11975;47.674;9.472;2023-03-16T22:38:00;21.85;;;20.60;;
23594;SDS011;11975;47.674;9.472;2023-03-16T22:40:31;22.52;;;21.23;;
23594;SDS011;11975;47.674;9.472;2023-03-16T22:43:00;22.75;;;21.45;;
23594;SDS011;11975;47.674;9.472;2023-03-16T22:45:29;23.30;;;21.92;;
23594;SDS011;11975;47.674;9.472;2023-03-16T22:47:57;22.42;;;21.13;;
23594;SDS011;11975;47.674;9.472;2023-03-16T22:50:24;22.70;;;21.40;;
23594;SDS011;11975;47.674;9.472;2023-03-16T22:52:52;23.08;;;21.67;;
23594;SDS011;11975;47.674;9.472;2023-03-16T22:55:21;22.33;;;21.10;;
23594;SDS011;11975;47.674;9.472;2023-03-16T22:57:49;22.88;;;21.50;;
23594;SDS011;11975;47.674;9.472;2023-03-16T23:00:16;22.65;;;21.35;;
23594;SDS011;11975;47.674;9.472;2023-03-16T23:02:46;22.50;;;21.20;;
23594;SDS011;11975;47.674;9.472;2023-03-16T23:05:17;22.60;;;21.30;;
23594;SDS011;11975;47.674;9.472;2023-03-16T23:07:45;22.80;;;21.50;;
23594;SDS011;11975;47.674;9.472;2023-03-16T23:10:18;22.50;;;21.27;;
23594;SDS011;11975;47.674;9.472;2023-03-16T23:12:45;22.50;;;21.20;;
23594;SDS011;11975;47.674;9.472;2023-03-16T23:15:14;23.67;;;22.17;;
23594;SDS011;11975;47.674;9.472;2023-03-16T23:17:42;22.60;;;21.30;;
23594;SDS011;11975;47.674;9.472;2023-03-16T23:20:22;23.15;;;21.67;;
23594;SDS011;11975;47.674;9.472;2023-03-16T23:22:51;23.98;;;22.58;;
23594;SDS011;11975;47.674;9.472;2023-03-16T23:25:18;23.17;;;21.88;;
23594;SDS011;11975;47.674;9.472;2023-03-16T23:27:45;24.00;;;22.60;;
